Time,TemperatureF,DewpointF,PressureIn,WindDirection,WindDirectionDegrees,WindSpeedMPH,WindSpeedGustMPH,Humidity,HourlyPrecipIn,Conditions,Clouds,dailyrainin,SoftwareType,DateUTC
2013-04-18 00:03:00,33.0,26.0,-100.00,South,187,4.0,6.0,74,-99.99,,,-99.99,,2013-04-18 04:03:00,
2013-04-18 00:13:00,35.0,26.0,-100.00,SE,134,6.0,8.0,69,-99.99,,,-99.99,,2013-04-18 04:13:00,
2013-04-18 00:23:00,34.0,25.0,-100.00,SW,234,2.0,6.0,70,-99.99,,,-99.99,,2013-04-18 04:23:00,
2013-04-18 00:33:00,32.0,25.0,-100.00,West,276,0.0,2.0,76,-99.99,,,-99.99,,2013-04-18 04:33:00,
2013-04-18 00:43:00,31.0,25.0,-100.00,SSW,196,0.0,0.0,78,-99.99,,,-99.99,,2013-04-18 04:43:00,
2013-04-18 00:53:00,31.0,25.0,-100.00,South,189,1.0,2.0,78,-99.99,,,-99.99,,2013-04-18 04:53:00,
2013-04-18 01:02:00,31.0,25.0,-100.00,WSW,256,1.0,4.0,76,-99.99,,,-99.99,,2013-04-18 05:02:00,
2013-04-18 01:12:00,32.0,25.0,-100.00,SE,126,1.0,4.0,75,-99.99,,,-99.99,,2013-04-18 05:12:00,
2013-04-18 01:22:00,30.0,26.0,-100.00,East,93,0.0,0.0,84,-99.99,,,-99.99,,2013-04-18 05:22:00,
2013-04-18 01:33:00,30.0,26.0,-100.00,SSE,163,0.0,2.0,84,-99.99,,,-99.99,,2013-04-18 05:33:00,
2013-04-18 01:42:00,30.0,26.0,-100.00,SSE,168,2.0,4.0,84,-99.99,,,-99.99,,2013-04-18 05:42:00,
2013-04-18 01:52:00,30.0,26.0,-100.00,WSW,249,0.0,2.0,84,-99.99,,,-99.99,,2013-04-18 05:52:00,
2013-04-18 02:02:00,29.0,25.0,-100.00,SSW,207,2.0,4.0,84,-99.99,,,-99.99,,2013-04-18 06:02:00,
2013-04-18 02:12:00,29.0,25.0,-100.00,East,96,1.0,2.0,83,-99.99,,,-99.99,,2013-04-18 06:12:00,
2013-04-18 02:22:00,29.0,25.0,-100.00,SE,136,0.0,2.0,84,-99.99,,,-99.99,,2013-04-18 06:22:00,
2013-04-18 02:32:00,30.0,25.0,-100.00,South,180,0.0,0.0,83,-99.99,,,-99.99,,2013-04-18 06:32:00,
2013-04-18 02:42:00,29.0,25.0,-100.00,SSW,206,1.0,4.0,82,-99.99,,,-99.99,,2013-04-18 06:42:00,
2013-04-18 02:52:00,29.0,25.0,-100.00,East,101,1.0,2.0,84,-99.99,,,-99.99,,2013-04-18 06:52:00,
2013-04-18 03:02:00,29.0,25.0,-100.00,North,8,2.0,4.0,85,-99.99,,,-99.99,,2013-04-18 07:02:00,
2013-04-18 03:12:00,28.0,25.0,-100.00,SW,232,0.0,2.0,85,-99.99,,,-99.99,,2013-04-18 07:12:00,
2013-04-18 03:22:00,28.0,25.0,-100.00,NE,48,0.0,2.0,86,-99.99,,,-99.99,,2013-04-18 07:22:00,
2013-04-18 03:32:00,28.0,25.0,-100.00,NNE,12,0.0,2.0,88,-99.99,,,-99.99,,2013-04-18 07:32:00,
2013-04-18 03:42:00,28.0,25.0,-100.00,West,259,0.0,2.0,88,-99.99,,,-99.99,,2013-04-18 07:42:00,
2013-04-18 03:52:00,28.0,25.0,-100.00,West,266,0.0,2.0,85,-99.99,,,-99.99,,2013-04-18 07:52:00,
2013-04-18 04:02:00,28.0,24.0,-100.00,SSE,153,0.0,2.0,84,-99.99,,,-99.99,,2013-04-18 08:02:00,
2013-04-18 04:12:00,29.0,24.0,-100.00,North,5,0.0,2.0,82,-99.99,,,-99.99,,2013-04-18 08:12:00,
2013-04-18 04:22:00,29.0,24.0,-100.00,SSW,201,0.0,2.0,81,-99.99,,,-99.99,,2013-04-18 08:22:00,
2013-04-18 04:32:00,29.0,24.0,-100.00,NW,316,0.0,2.0,82,-99.99,,,-99.99,,2013-04-18 08:32:00,
2013-04-18 04:42:00,29.0,24.0,-100.00,ESE,106,0.0,2.0,80,-99.99,,,-99.99,,2013-04-18 08:42:00,
2013-04-18 04:52:00,29.0,24.0,-100.00,WSW,248,0.0,2.0,80,-99.99,,,-99.99,,2013-04-18 08:52:00,
2013-04-18 05:02:00,29.0,24.0,-100.00,SW,220,0.0,2.0,80,-99.99,,,-99.99,,2013-04-18 09:02:00,
2013-04-18 05:12:00,29.0,24.0,-100.00,South,172,2.0,4.0,81,-99.99,,,-99.99,,2013-04-18 09:12:00,
2013-04-18 05:22:00,30.0,24.0,-100.00,SW,230,4.0,6.0,79,-99.99,,,-99.99,,2013-04-18 09:22:00,
2013-04-18 05:33:00,30.0,24.0,-100.00,SSW,211,0.0,2.0,77,-99.99,,,-99.99,,2013-04-18 09:33:00,
2013-04-18 05:43:00,30.0,24.0,-100.00,South,180,1.0,2.0,78,-99.99,,,-99.99,,2013-04-18 09:43:00,
2013-04-18 05:53:00,29.0,24.0,-100.00,South,188,1.0,2.0,80,-99.99,,,-99.99,,2013-04-18 09:53:00,
2013-04-18 06:03:00,29.0,24.0,-100.00,WSW,255,3.0,4.0,81,-99.99,,,-99.99,,2013-04-18 10:03:00,
2013-04-18 06:12:00,29.0,24.0,-100.00,South,188,0.0,2.0,82,-99.99,,,-99.99,,2013-04-18 10:12:00,
2013-04-18 06:23:00,28.0,24.0,-100.00,NNE,29,0.0,0.0,83,-99.99,,,-99.99,,2013-04-18 10:23:00,
2013-04-18 06:33:00,28.0,24.0,-100.00,SSE,161,0.0,2.0,84,-99.99,,,-99.99,,2013-04-18 10:33:00,
2013-04-18 06:42:00,28.0,25.0,-100.00,SW,220,0.0,2.0,86,-99.99,,,-99.99,,2013-04-18 10:42:00,
2013-04-18 06:52:00,28.0,25.0,-100.00,North,0,1.0,2.0,85,-99.99,,,-99.99,,2013-04-18 10:52:00,
2013-04-18 07:02:00,29.0,25.0,-100.00,ESE,103,1.0,2.0,86,-99.99,,,-99.99,,2013-04-18 11:02:00,
2013-04-18 07:12:00,29.0,25.0,-100.00,ESE,107,1.0,2.0,87,-99.99,,,-99.99,,2013-04-18 11:12:00,
2013-04-18 07:22:00,29.0,26.0,-100.00,SSE,152,2.0,4.0,86,-99.99,,,-99.99,,2013-04-18 11:22:00,
2013-04-18 07:32:00,29.0,26.0,-100.00,South,180,1.0,2.0,86,-99.99,,,-99.99,,2013-04-18 11:32:00,
2013-04-18 07:42:00,30.0,26.0,-100.00,SSE,157,0.0,2.0,86,-99.99,,,-99.99,,2013-04-18 11:42:00,
2013-04-18 07:52:00,30.0,26.0,-100.00,South,183,0.0,0.0,85,-99.99,,,-99.99,,2013-04-18 11:52:00,
2013-04-18 08:02:00,31.0,26.0,-100.00,SE,130,0.0,2.0,83,-99.99,,,-99.99,,2013-04-18 12:02:00,
2013-04-18 08:12:00,31.0,27.0,-100.00,East,93,1.0,2.0,86,-99.99,,,-99.99,,2013-04-18 12:12:00,
2013-04-18 08:23:00,30.0,27.0,-100.00,SE,139,0.0,2.0,87,-99.99,,,-99.99,,2013-04-18 12:23:00,
2013-04-18 08:32:00,30.0,28.0,-100.00,SE,130,0.0,2.0,88,-99.99,,,-99.99,,2013-04-18 12:32:00,
2013-04-18 08:42:00,31.0,27.0,-100.00,ESE,117,1.0,2.0,86,-99.99,,,-99.99,,2013-04-18 12:42:00,
2013-04-18 08:52:00,31.0,28.0,-100.00,South,190,2.0,4.0,85,-99.99,,,-99.99,,2013-04-18 12:52:00,
2013-04-18 09:03:00,32.0,27.0,-100.00,SE,127,2.0,4.0,81,-99.99,,,-99.99,,2013-04-18 13:03:00,
2013-04-18 09:12:00,33.0,27.0,-100.00,SW,232,2.0,6.0,77,-99.99,,,-99.99,,2013-04-18 13:12:00,
2013-04-18 09:22:00,34.0,27.0,-100.00,West,261,1.0,2.0,74,-99.99,,,-99.99,,2013-04-18 13:22:00,
2013-04-18 09:32:00,36.0,28.0,-100.00,SE,133,1.0,4.0,71,-99.99,,,-99.99,,2013-04-18 13:32:00,
2013-04-18 09:42:00,37.0,28.0,-100.00,ESE,106,2.0,4.0,68,-99.99,,,-99.99,,2013-04-18 13:42:00,
2013-04-18 09:52:00,37.0,28.0,-100.00,ESE,116,1.0,2.0,70,-99.99,,,-99.99,,2013-04-18 13:52:00,
2013-04-18 10:03:00,37.0,28.0,-100.00,SE,134,3.0,4.0,69,-99.99,,,-99.99,,2013-04-18 14:03:00,
2013-04-18 10:12:00,39.0,27.0,-100.00,East,99,4.0,6.0,63,-99.99,,,-99.99,,2013-04-18 14:12:00,
2013-04-18 10:22:00,39.0,27.0,-100.00,South,171,4.0,8.0,61,-99.99,,,-99.99,,2013-04-18 14:22:00,
2013-04-18 10:32:00,41.0,27.0,-100.00,SSE,158,5.0,10.0,58,-99.99,,,-99.99,,2013-04-18 14:32:00,
2013-04-18 10:43:00,42.0,26.0,-100.00,SSW,207,6.0,10.0,53,-99.99,,,-99.99,,2013-04-18 14:43:00,
2013-04-18 10:52:00,43.0,26.0,-100.00,South,174,6.0,11.0,50,-99.99,,,-99.99,,2013-04-18 14:52:00,
2013-04-18 11:03:00,43.0,25.0,-100.00,SSW,202,6.0,11.0,48,-99.99,,,-99.99,,2013-04-18 15:03:00,
2013-04-18 11:12:00,44.0,24.0,-100.00,SE,139,5.0,13.0,46,-99.99,,,-99.99,,2013-04-18 15:12:00,
2013-04-18 11:22:00,43.0,24.0,-100.00,South,174,7.0,13.0,45,-99.99,,,-99.99,,2013-04-18 15:22:00,
2013-04-18 11:33:00,43.0,24.0,-100.00,SSW,209,6.0,13.0,46,-99.99,,,-99.99,,2013-04-18 15:33:00,
2013-04-18 11:43:00,43.0,24.0,-100.00,East,86,6.0,11.0,47,-99.99,,,-99.99,,2013-04-18 15:43:00,
2013-04-18 11:52:00,43.0,24.0,-100.00,ESE,121,5.0,8.0,47,-99.99,,,-99.99,,2013-04-18 15:52:00,
2013-04-18 12:03:00,43.0,24.0,-100.00,SSE,153,6.0,10.0,47,-99.99,,,-99.99,,2013-04-18 16:03:00,
2013-04-18 12:13:00,43.0,24.0,-100.00,SW,216,5.0,10.0,46,-99.99,,,-99.99,,2013-04-18 16:13:00,
2013-04-18 12:23:00,43.0,25.0,-100.00,SE,127,9.0,15.0,48,-99.99,,,-99.99,,2013-04-18 16:23:00,
2013-04-18 12:33:00,43.0,29.0,-100.00,East,92,6.0,11.0,58,-99.99,,,-99.99,,2013-04-18 16:33:00,
2013-04-18 12:43:00,42.0,31.0,-100.00,ESE,112,2.0,4.0,63,-99.99,,,-99.99,,2013-04-18 16:43:00,
2013-04-18 12:52:00,42.0,33.0,-100.00,SSE,153,3.0,6.0,70,-99.99,,,-99.99,,2013-04-18 16:52:00,
2013-04-18 13:03:00,43.0,33.0,-100.00,South,188,2.0,6.0,66,-99.99,,,-99.99,,2013-04-18 17:03:00,
2013-04-18 13:12:00,43.0,32.0,-100.00,South,186,4.0,6.0,65,-99.99,,,-99.99,,2013-04-18 17:12:00,
2013-04-18 13:22:00,42.0,34.0,-100.00,East,87,3.0,4.0,72,-99.99,,,-99.99,,2013-04-18 17:22:00,
2013-04-18 13:33:00,42.0,35.0,-100.00,SE,131,1.0,4.0,76,-99.99,,,-99.99,,2013-04-18 17:33:00,
2013-04-18 13:43:00,42.0,35.0,-100.00,ESE,110,2.0,4.0,78,-99.99,,,-99.99,,2013-04-18 17:43:00,
2013-04-18 13:52:00,43.0,33.0,-100.00,South,186,5.0,10.0,69,-99.99,,,-99.99,,2013-04-18 17:52:00,
2013-04-18 14:03:00,43.0,35.0,-100.00,SE,129,5.0,8.0,71,-99.99,,,-99.99,,2013-04-18 18:03:00,
2013-04-18 14:13:00,43.0,35.0,-100.00,ESE,102,7.0,15.0,73,-99.99,,,-99.99,,2013-04-18 18:13:00,
2013-04-18 14:23:00,42.0,35.0,-100.00,South,183,5.0,11.0,75,-99.99,,,-99.99,,2013-04-18 18:23:00,
2013-04-18 14:32:00,42.0,35.0,-100.00,East,87,7.0,15.0,76,-99.99,,,-99.99,,2013-04-18 18:32:00,
2013-04-18 14:43:00,42.0,35.0,-100.00,East,101,6.0,11.0,76,-99.99,,,-99.99,,2013-04-18 18:43:00,
2013-04-18 14:52:00,42.0,36.0,-100.00,SSE,150,7.0,11.0,76,-99.99,,,-99.99,,2013-04-18 18:52:00,
2013-04-18 15:03:00,44.0,37.0,-100.00,SE,127,5.0,10.0,73,-99.99,,,-99.99,,2013-04-18 19:03:00,
2013-04-18 15:12:00,46.0,38.0,-100.00,East,99,7.0,11.0,72,-99.99,,,-99.99,,2013-04-18 19:12:00,
2013-04-18 15:22:00,47.0,37.0,-100.00,ESE,116,8.0,13.0,68,-99.99,,,-99.99,,2013-04-18 19:22:00,
2013-04-18 15:32:00,47.0,35.0,-100.00,ENE,65,7.0,10.0,63,-99.99,,,-99.99,,2013-04-18 19:32:00,
2013-04-18 15:42:00,47.0,35.0,-100.00,ESE,113,6.0,10.0,63,-99.99,,,-99.99,,2013-04-18 19:42:00,
2013-04-18 15:52:00,47.0,35.0,-100.00,ESE,114,7.0,10.0,63,-99.99,,,-99.99,,2013-04-18 19:52:00,
2013-04-18 16:02:00,48.0,36.0,-100.00,South,177,7.0,11.0,62,-99.99,,,-99.99,,2013-04-18 20:02:00,
2013-04-18 16:12:00,49.0,37.0,-100.00,ESE,114,7.0,11.0,63,-99.99,,,-99.99,,2013-04-18 20:12:00,
2013-04-18 16:22:00,50.0,37.0,-100.00,East,80,7.0,13.0,60,-99.99,,,-99.99,,2013-04-18 20:22:00,
2013-04-18 16:32:00,51.0,36.0,-100.00,ESE,102,8.0,13.0,56,-99.99,,,-99.99,,2013-04-18 20:32:00,
2013-04-18 16:42:00,52.0,36.0,-100.00,East,100,6.0,10.0,54,-99.99,,,-99.99,,2013-04-18 20:42:00,
2013-04-18 16:52:00,54.0,35.0,-100.00,SE,131,9.0,19.0,48,-99.99,,,-99.99,,2013-04-18 20:52:00,
2013-04-18 17:02:00,56.0,32.0,-100.00,SSE,158,14.0,31.0,40,-99.99,,,-99.99,,2013-04-18 21:02:00,
2013-04-18 17:12:00,56.0,32.0,-100.00,South,176,16.0,29.0,39,-99.99,,,-99.99,,2013-04-18 21:12:00,
2013-04-18 17:22:00,56.0,31.0,-100.00,SSE,152,13.0,33.0,39,-99.99,,,-99.99,,2013-04-18 21:22:00,
2013-04-18 17:33:00,57.0,32.0,-100.00,South,175,16.0,29.0,38,-99.99,,,-99.99,,2013-04-18 21:33:00,
2013-04-18 17:43:00,57.0,32.0,-100.00,South,175,16.0,29.0,38,-99.99,,,-99.99,,2013-04-18 21:43:00,
2013-04-18 17:53:00,56.0,31.0,-100.00,SE,143,16.0,29.0,38,-99.99,,,-99.99,,2013-04-18 21:53:00,
2013-04-18 18:03:00,56.0,31.0,-100.00,SSE,156,17.0,35.0,38,-99.99,,,-99.99,,2013-04-18 22:03:00,
2013-04-18 18:13:00,56.0,31.0,-100.00,SE,129,14.0,29.0,38,-99.99,,,-99.99,,2013-04-18 22:13:00,
2013-04-18 18:23:00,56.0,31.0,-100.00,SSE,147,15.0,31.0,38,-99.99,,,-99.99,,2013-04-18 22:23:00,
2013-04-18 18:33:00,55.0,31.0,-100.00,SE,129,17.0,36.0,39,-99.99,,,-99.99,,2013-04-18 22:33:00,
2013-04-18 18:42:00,55.0,31.0,-100.00,SE,135,13.0,27.0,40,-99.99,,,-99.99,,2013-04-18 22:42:00,
2013-04-18 18:52:00,55.0,32.0,-100.00,ESE,123,12.0,24.0,40,-99.99,,,-99.99,,2013-04-18 22:52:00,
2013-04-18 19:04:00,55.0,32.0,-100.00,SSW,196,12.0,26.0,41,-99.99,,,-99.99,,2013-04-18 23:04:00,
2013-04-18 19:12:00,55.0,32.0,-100.00,SSW,208,16.0,29.0,41,-99.99,,,-99.99,,2013-04-18 23:12:00,
2013-04-18 19:22:00,55.0,32.0,-100.00,South,170,14.0,29.0,42,-99.99,,,-99.99,,2013-04-18 23:22:00,
2013-04-18 19:32:00,55.0,32.0,-100.00,SSE,147,14.0,27.0,42,-99.99,,,-99.99,,2013-04-18 23:32:00,
2013-04-18 19:42:00,54.0,33.0,-100.00,SSW,192,13.0,24.0,43,-99.99,,,-99.99,,2013-04-18 23:42:00,
2013-04-18 19:52:00,54.0,33.0,-100.00,SE,126,16.0,27.0,43,-99.99,,,-99.99,,2013-04-18 23:52:00,
2013-04-18 20:01:00,54.0,33.0,-100.00,SE,135,14.0,26.0,44,-99.99,,,-99.99,,2013-04-19 00:01:00,
2013-04-18 20:12:00,54.0,33.0,-100.00,WSW,237,10.0,19.0,45,-99.99,,,-99.99,,2013-04-19 00:12:00,
2013-04-18 20:22:00,54.0,33.0,-100.00,East,85,11.0,22.0,46,-99.99,,,-99.99,,2013-04-19 00:22:00,
2013-04-18 20:32:00,54.0,33.0,-100.00,SE,134,12.0,24.0,45,-99.99,,,-99.99,,2013-04-19 00:32:00,
2013-04-18 20:42:00,54.0,33.0,-100.00,ESE,108,11.0,27.0,46,-99.99,,,-99.99,,2013-04-19 00:42:00,
2013-04-18 20:51:00,54.0,33.0,-100.00,SW,215,10.0,20.0,46,-99.99,,,-99.99,,2013-04-19 00:51:00,
2013-04-18 21:01:00,54.0,33.0,-100.00,SSE,152,12.0,24.0,45,-99.99,,,-99.99,,2013-04-19 01:01:00,
2013-04-18 21:11:00,53.0,33.0,-100.00,SSE,167,11.0,20.0,45,-99.99,,,-99.99,,2013-04-19 01:11:00,
2013-04-18 21:21:00,53.0,33.0,-100.00,ENE,75,9.0,20.0,46,-99.99,,,-99.99,,2013-04-19 01:21:00,
2013-04-18 21:32:00,53.0,33.0,-100.00,SW,231,10.0,19.0,45,-99.99,,,-99.99,,2013-04-19 01:32:00,
2013-04-18 21:42:00,53.0,33.0,-100.00,ESE,110,10.0,17.0,45,-99.99,,,-99.99,,2013-04-19 01:42:00,
2013-04-18 21:52:00,53.0,33.0,-100.00,East,100,11.0,22.0,46,-99.99,,,-99.99,,2013-04-19 01:52:00,
2013-04-18 22:02:00,53.0,33.0,-100.00,SE,124,11.0,22.0,46,-99.99,,,-99.99,,2013-04-19 02:02:00,
2013-04-18 22:11:00,53.0,33.0,-100.00,South,170,14.0,26.0,46,-99.99,,,-99.99,,2013-04-19 02:11:00,
2013-04-18 22:21:00,53.0,32.0,-100.00,SE,140,12.0,24.0,45,-99.99,,,-99.99,,2013-04-19 02:21:00,
2013-04-18 22:32:00,52.0,32.0,-100.00,East,95,14.0,24.0,45,-99.99,,,-99.99,,2013-04-19 02:32:00,
2013-04-18 22:42:00,52.0,32.0,-100.00,SSE,162,12.0,24.0,45,-99.99,,,-99.99,,2013-04-19 02:42:00,
2013-04-18 22:52:00,52.0,32.0,-100.00,South,170,11.0,19.0,47,-99.99,,,-99.99,,2013-04-19 02:52:00,
2013-04-18 23:01:00,52.0,32.0,-100.00,East,94,11.0,22.0,47,-99.99,,,-99.99,,2013-04-19 03:01:00,
2013-04-18 23:12:00,51.0,32.0,-100.00,SSW,201,12.0,27.0,47,-99.99,,,-99.99,,2013-04-19 03:12:00,
2013-04-18 23:22:00,51.0,32.0,-100.00,SE,145,12.0,22.0,48,-99.99,,,-99.99,,2013-04-19 03:22:00,
2013-04-18 23:33:00,51.0,32.0,-100.00,East,83,12.0,24.0,47,-99.99,,,-99.99,,2013-04-19 03:33:00,
2013-04-18 23:43:00,51.0,32.0,-100.00,SSE,163,11.0,24.0,47,-99.99,,,-99.99,,2013-04-19 03:43:00,
2013-04-18 23:53:00,51.0,32.0,-100.00,East,83,11.0,27.0,47,-99.99,,,-99.99,,2013-04-19 03:53:00,